Terminal Aerodrome Forecast
Issued by NWS

Home | Current Version | Previous Version | Text Only | Print | Product List | Glossary On
Versions: 1 2 3 4 5 6 7 8 9 10 11 12 13 14
000
FTUS43 KDLH 042336
TAFHIB
TAF
KHIB 042336Z 0500/0524 36006KT P6SM SKC
     FM050100 00000KT P6SM SKC
     FM051000 22006KT P6SM VCSH SCT050
     FM051400 23010G20KT P6SM VCSH BKN050
     FM051700 24011G19KT P6SM SCT050=

USA.gov is the U.S. government's official web portal to all federal, state and local government web resources and services.